createdAt,value
2022-09-18T00:00:29.110Z,10.50
2022-09-18T00:05:30.830Z,10.50
2022-09-18T00:10:32.474Z,10.50
2022-09-18T00:15:34.359Z,10.50
2022-09-18T00:20:37.203Z,10.50
2022-09-18T00:25:38.834Z,10.40
2022-09-18T00:30:40.465Z,10.50
2022-09-18T00:35:43.582Z,10.50
2022-09-18T00:40:45.265Z,10.50
2022-09-18T00:45:53.930Z,10.50
2022-09-18T00:50:55.664Z,10.50
2022-09-18T00:56:00.021Z,10.50
2022-09-18T01:01:02.605Z,10.60
2022-09-18T01:06:10.684Z,10.50
2022-09-18T01:11:37.152Z,10.50
2022-09-18T01:17:17.135Z,10.60
2022-09-18T01:22:53.215Z,10.50
2022-09-18T01:28:22.948Z,10.50
2022-09-18T01:33:31.061Z,10.50
2022-09-18T01:38:37.223Z,10.60
2022-09-18T01:43:40.885Z,10.60
2022-09-18T01:49:02.939Z,10.60
2022-09-18T01:54:08.914Z,10.60
2022-09-18T01:59:16.698Z,10.60
2022-09-18T02:04:27.522Z,10.60
2022-09-18T02:09:29.833Z,10.60
2022-09-18T02:14:42.605Z,10.60
2022-09-18T02:20:10.162Z,10.60
2022-09-18T02:25:15.669Z,10.50
2022-09-18T02:30:17.514Z,10.50
2022-09-18T02:35:19.228Z,10.50
2022-09-18T02:40:37.919Z,10.50
2022-09-18T02:46:23.104Z,10.50
2022-09-18T02:51:29.020Z,10.50
2022-09-18T02:56:52.806Z,10.50
2022-09-18T03:01:56.812Z,10.50
2022-09-18T03:06:58.710Z,10.60
2022-09-18T03:12:02.157Z,10.60
2022-09-18T03:17:04.118Z,10.60
2022-09-18T03:22:05.991Z,10.60
2022-09-18T03:27:07.681Z,10.50
2022-09-18T03:32:09.367Z,10.50
2022-09-18T03:37:11.038Z,10.50
2022-09-18T03:42:12.667Z,10.50
2022-09-18T03:47:14.740Z,10.40
2022-09-18T03:52:16.384Z,10.50
2022-09-18T03:57:18.010Z,10.40
2022-09-18T04:02:19.668Z,10.30
2022-09-18T04:07:21.362Z,10.30
2022-09-18T04:12:23.137Z,10.30
2022-09-18T04:17:25.010Z,10.30
2022-09-18T04:22:26.630Z,10.20
2022-09-18T04:27:28.349Z,10.10
2022-09-18T04:32:30.026Z,10.10
2022-09-18T04:37:31.678Z,10.10
2022-09-18T04:42:33.310Z,10.10
2022-09-18T04:47:37.651Z,10.10
2022-09-18T04:52:39.322Z,10.10
2022-09-18T04:57:41.708Z,10.20
2022-09-18T05:02:43.665Z,10.10
2022-09-18T05:07:45.404Z,10.10
2022-09-18T05:12:48.085Z,10.30
2022-09-18T05:17:59.059Z,10.30
2022-09-18T05:23:01.074Z,10.40
2022-09-18T05:28:03.804Z,10.50
2022-09-18T05:33:07.462Z,10.50
2022-09-18T05:38:11.542Z,10.60
2022-09-18T05:43:13.316Z,10.60
2022-09-18T05:48:15.023Z,10.60
2022-09-18T05:53:19.040Z,10.80
2022-09-18T05:58:21.329Z,10.90
2022-09-18T06:03:23.173Z,11.00
2022-09-18T06:08:36.204Z,11.00
2022-09-18T06:13:37.972Z,11.00
2022-09-18T06:18:39.677Z,10.90
2022-09-18T06:23:42.661Z,10.80
2022-09-18T06:28:46.458Z,10.90
2022-09-18T06:33:49.028Z,11.00
2022-09-18T06:38:50.829Z,11.10
2022-09-18T06:43:52.485Z,11.30
2022-09-18T06:48:54.146Z,11.10
2022-09-18T06:53:55.893Z,11.00
2022-09-18T06:58:57.493Z,11.10
2022-09-18T07:03:59.287Z,11.10
2022-09-18T07:09:01.067Z,11.10
2022-09-18T07:14:09.282Z,11.30
2022-09-18T07:19:11.547Z,11.30
2022-09-18T07:24:13.177Z,11.20
2022-09-18T07:29:14.822Z,11.30
2022-09-18T07:34:16.570Z,11.50
2022-09-18T07:39:18.221Z,11.60
2022-09-18T07:44:19.859Z,11.70
2022-09-18T07:49:21.553Z,12.00
2022-09-18T07:54:23.333Z,12.20
2022-09-18T07:59:24.972Z,12.20
2022-09-18T08:04:26.594Z,12.30
2022-09-18T08:09:28.275Z,12.70
2022-09-18T08:14:30.157Z,12.70
2022-09-18T08:19:32.015Z,12.80
2022-09-18T08:24:33.730Z,13.00
2022-09-18T08:29:35.370Z,13.20
2022-09-18T08:34:37.479Z,13.40
2022-09-18T08:39:39.190Z,13.80
2022-09-18T08:44:55.000Z,14.30
2022-09-18T08:50:12.408Z,14.30
2022-09-18T08:55:31.172Z,14.50
2022-09-18T09:00:45.922Z,14.70
2022-09-18T09:05:52.668Z,14.60
2022-09-18T09:11:17.787Z,14.50
2022-09-18T09:17:04.011Z,14.50
2022-09-18T09:22:18.007Z,14.50
2022-09-18T09:27:35.034Z,14.60
2022-09-18T09:33:13.106Z,14.50
2022-09-18T09:38:23.849Z,13.90
2022-09-18T09:43:39.136Z,13.80
2022-09-18T09:49:12.816Z,13.90
2022-09-18T09:54:14.524Z,13.90
2022-09-18T09:59:53.707Z,14.20
2022-09-18T10:04:58.138Z,14.60
2022-09-18T10:10:22.108Z,14.90
2022-09-18T10:15:38.194Z,15.50
2022-09-18T10:20:41.195Z,15.60
2022-09-18T10:25:52.224Z,15.40
2022-09-18T10:31:05.206Z,15.00
2022-09-18T10:36:25.932Z,15.00
2022-09-18T10:41:39.274Z,15.00
2022-09-18T10:46:57.731Z,14.90
2022-09-18T10:52:31.811Z,15.00
2022-09-18T10:57:35.874Z,15.40
2022-09-18T11:03:04.112Z,15.40
2022-09-18T11:08:16.382Z,15.40
2022-09-18T11:13:24.408Z,15.70
2022-09-18T11:18:27.048Z,15.50
2022-09-18T11:23:36.658Z,15.70
2022-09-18T11:28:39.742Z,15.70
2022-09-18T11:33:49.056Z,15.80
2022-09-18T11:38:50.758Z,15.90
2022-09-18T11:44:24.189Z,15.90
2022-09-18T11:49:34.562Z,15.90
2022-09-18T11:54:43.823Z,15.90
2022-09-18T11:59:54.947Z,16.00
2022-09-18T12:05:20.225Z,16.10
2022-09-18T12:10:33.389Z,16.50
2022-09-18T12:15:37.479Z,16.70
2022-09-18T12:20:40.158Z,16.10
2022-09-18T12:26:07.060Z,15.60
2022-09-18T12:31:23.788Z,15.40
2022-09-18T12:36:44.440Z,15.30
2022-09-18T12:42:25.088Z,14.90
2022-09-18T12:48:09.037Z,14.60
2022-09-18T12:54:07.479Z,14.60
2022-09-18T12:59:31.841Z,14.20
2022-09-18T13:04:38.576Z,13.70
2022-09-18T13:09:52.041Z,13.00
2022-09-18T13:15:03.084Z,12.40
2022-09-18T13:20:15.892Z,12.30
2022-09-18T13:25:29.355Z,12.30
2022-09-18T13:30:32.122Z,12.50
2022-09-18T13:35:37.362Z,12.70
2022-09-18T13:40:55.715Z,12.60
2022-09-18T13:46:02.463Z,12.70
2022-09-18T13:51:18.793Z,12.80
2022-09-18T13:56:20.515Z,12.80
2022-09-18T14:01:40.818Z,13.00
2022-09-18T14:06:45.331Z,13.10
2022-09-18T14:11:47.236Z,13.20
2022-09-18T14:16:50.743Z,13.10
2022-09-18T14:21:52.742Z,12.90
2022-09-18T14:27:22.603Z,12.90
2022-09-18T14:32:26.292Z,12.80
2022-09-18T14:37:34.992Z,12.80
2022-09-18T14:42:45.773Z,13.00
2022-09-18T14:47:48.680Z,13.00
2022-09-18T14:52:50.556Z,12.70
2022-09-18T14:58:05.940Z,12.70
2022-09-18T15:03:24.559Z,12.70
2022-09-18T15:08:26.892Z,12.60
2022-09-18T15:13:50.564Z,12.50
2022-09-18T15:18:52.230Z,12.50
2022-09-18T15:23:55.719Z,12.30
2022-09-18T15:28:59.565Z,12.30
2022-09-18T15:34:29.076Z,12.30
2022-09-18T15:39:40.157Z,12.30
2022-09-18T15:44:51.884Z,12.10
2022-09-18T15:49:53.916Z,11.90
2022-09-18T15:55:06.391Z,11.90
2022-09-18T16:00:16.810Z,11.90
2022-09-18T16:05:18.777Z,11.90
2022-09-18T16:10:36.130Z,11.80
2022-09-18T16:15:38.085Z,11.80
2022-09-18T16:20:45.818Z,11.70
2022-09-18T16:26:24.671Z,11.40
2022-09-18T16:31:28.977Z,11.50
2022-09-18T16:36:38.260Z,11.20
2022-09-18T16:41:40.351Z,11.40
2022-09-18T16:46:51.169Z,11.40
2022-09-18T16:51:55.597Z,11.40
2022-09-18T16:57:10.896Z,11.30
2022-09-18T17:02:16.218Z,11.20
2022-09-18T17:07:17.873Z,11.10
2022-09-18T17:12:19.729Z,10.90
2022-09-18T17:17:21.386Z,10.80
2022-09-18T17:22:24.112Z,10.60
2022-09-18T17:27:26.285Z,10.60
2022-09-18T17:32:28.010Z,10.60
2022-09-18T17:37:30.932Z,10.50
2022-09-18T17:42:33.466Z,10.70
2022-09-18T17:47:35.080Z,10.70
2022-09-18T17:52:36.787Z,10.90
2022-09-18T17:57:39.283Z,11.00
2022-09-18T18:02:43.830Z,11.00
2022-09-18T18:07:45.474Z,10.90
2022-09-18T18:12:47.214Z,10.70
2022-09-18T18:17:49.433Z,10.60
2022-09-18T18:22:51.136Z,10.60
2022-09-18T18:27:55.177Z,10.50
2022-09-18T18:32:57.780Z,10.40
2022-09-18T18:37:59.454Z,10.30
2022-09-18T18:43:01.496Z,10.10
2022-09-18T18:48:03.174Z,9.90
2022-09-18T18:53:04.777Z,9.70
2022-09-18T18:58:06.467Z,9.50
2022-09-18T19:03:08.212Z,9.40
2022-09-18T19:08:10.126Z,9.40
2022-09-18T19:13:12.371Z,9.20
2022-09-18T19:18:14.120Z,9.20
2022-09-18T19:23:16.781Z,9.10
2022-09-18T19:28:18.883Z,9.10
2022-09-18T19:33:22.947Z,9.30
2022-09-18T19:38:25.255Z,9.40
2022-09-18T19:43:35.362Z,9.60
2022-09-18T19:48:37.152Z,9.70
2022-09-18T19:53:38.791Z,9.70
2022-09-18T19:58:42.157Z,9.80
2022-09-18T20:03:43.855Z,9.80
2022-09-18T20:08:46.065Z,9.80
2022-09-18T20:13:51.992Z,9.80
2022-09-18T20:18:54.649Z,9.80
2022-09-18T20:23:58.617Z,9.80
2022-09-18T20:29:00.633Z,9.70
2022-09-18T20:34:05.884Z,9.80
2022-09-18T20:39:08.214Z,9.80
2022-09-18T20:44:10.005Z,9.90
2022-09-18T20:49:12.656Z,9.90
2022-09-18T20:54:16.500Z,9.90
2022-09-18T20:59:19.693Z,10.00
2022-09-18T21:04:21.430Z,10.10
2022-09-18T21:09:28.168Z,10.10
2022-09-18T21:14:29.988Z,10.20
2022-09-18T21:19:31.842Z,10.20
2022-09-18T21:24:34.087Z,10.20
2022-09-18T21:29:35.808Z,10.10
2022-09-18T21:34:40.350Z,10.10
2022-09-18T21:39:44.331Z,10.20
2022-09-18T21:44:46.077Z,10.10
2022-09-18T21:49:48.724Z,10.10
2022-09-18T21:54:50.478Z,10.10
2022-09-18T21:59:52.163Z,10.10
2022-09-18T22:04:54.137Z,10.10
2022-09-18T22:09:55.864Z,10.10
2022-09-18T22:14:57.510Z,10.10
2022-09-18T22:19:59.208Z,10.10
2022-09-18T22:25:03.198Z,10.10
2022-09-18T22:30:06.110Z,10.10
2022-09-18T22:35:08.497Z,10.10
2022-09-18T22:40:10.452Z,10.10
2022-09-18T22:45:12.138Z,10.00
2022-09-18T22:50:13.865Z,10.00
2022-09-18T22:55:15.601Z,10.10
2022-09-18T23:00:17.416Z,10.10
2022-09-18T23:05:19.060Z,10.10
2022-09-18T23:10:22.047Z,10.00
2022-09-18T23:15:23.682Z,10.10
2022-09-18T23:20:25.320Z,10.10
2022-09-18T23:25:26.994Z,10.10
2022-09-18T23:30:28.669Z,10.10
2022-09-18T23:35:30.307Z,10.10
2022-09-18T23:40:32.064Z,10.10
2022-09-18T23:45:34.667Z,10.10
2022-09-18T23:50:36.302Z,10.10
2022-09-18T23:55:37.925Z,10.10
